Strona główna
METAR-TAF:

METAR-TAF

Lotnisko :

Port lotniczy Palembang

Palembang, Indonezja

Szerokość geograficzna: 02-54S, Długość geograficzna: 104-42E, wysokość: 10 m

Aktualna obserwacja pogody

Raport powstał 9 godziny i 37 minut temu, godzina 13:00 UTC
Wiatr 3 kt od południowy zachód
Temperatura 25°C
Wilgotność 89%
Ciśnienie 1010 hPa
Widzialność 10 km lub więcej
Mało chmury na wysokości 1000 ft

METAR: WIPP 101300Z 23003KT 9999 FEW010 25/23 Q1010 NOSIG

czas: 05:37 (22:37 UTC)

Prognoza

Raport powstał 5 godziny i 37 minut temu, godzina 17:00 UTC
Prognoza ważna od 10 godzina 18 UTC do 11 godzina 18 UTC
Wiatr 6 kt od północny zachód
Widzialność 10 km lub więcej
Rozproszone chmury na wysokości 1000 ft
Przejściowo
od 10 godzina 20 UTC do 10 godzina 24 UTC
Widzialność: 2000 m
zamglenie

TAF: WIPP 101700Z 1018/1118 32006KT 9999 SCT010 TEMPO 1020/1024 2000 BR

Obserwacja i prognoza pogody dla ponad 4000 lotnisk (raport METAR i TAF).

Dostępne stacje oznaczono żółtymi i czerwonymi punktami na mapie.

Najedź kursorem aby zobaczyć nazwę stacji.

Kliknij aby zobaczyć obserwacje i prognozy pogody.

Aby zmienić mapę: kliknij na zielony przycisk z czarnym krzyżykiem, aby powiększyć; na zielony przycisk z myślnikiem, aby pomniejszyć; na zielone strzałki, aby przejść do map sąsiednich.


METAR-TAF: